Time;durP1;ratioP1;P1;durP2;ratioP2;P2;SDS_P1;SDS_P2;PMS_P1;PMS_P2;Temp;Humidity;BMP_temperature;BMP_pressure;BME280_temperature;BME280_humidity;BME280_pressure;Samples;Min_cycle;Max_cycle;Signal;HPM_P1;HPM_P2
2022/12/17 13:06:50;;;;;;;61.00;34.43;;;1.80;74.60;;;;;;5124334;27;20047;-70
2022/12/17 13:09:15;;;;;;;65.43;37.13;;;1.80;74.60;;;;;;5096749;27;20454;-70
2022/12/17 13:11:48;;;;;;;67.90;38.43;;;1.80;74.60;;;;;;5121743;27;20129;-70
2022/12/17 13:14:27;;;;;;;66.83;36.07;;;1.80;74.60;;;;;;5124304;27;20492;-72
2022/12/17 13:17:15;;;;;;;65.63;35.83;;;1.80;74.60;;;;;;5134503;27;20493;-73
2022/12/17 13:19:43;;;;;;;59.87;33.90;;;1.80;74.60;;;;;;5112885;27;20550;-73
2022/12/17 13:22:14;;;;;;;68.83;37.10;;;1.80;74.60;;;;;;5121845;27;20038;-73
2022/12/17 13:24:45;;;;;;;69.43;37.73;;;1.80;74.60;;;;;;5114997;27;20047;-73
2022/12/17 13:27:33;;;;;;;64.00;35.23;;;1.80;74.60;;;;;;5114511;27;20046;-73
2022/12/17 13:30:10;;;;;;;70.23;38.07;;;1.80;74.50;;;;;;5097665;27;20039;-74
2022/12/17 13:32:46;;;;;;;62.40;35.97;;;1.70;74.40;;;;;;5124028;27;20288;-73
2022/12/17 13:35:24;;;;;;;65.43;36.23;;;1.70;74.60;;;;;;5095739;27;20107;-74
2022/12/17 13:38:04;;;;;;;69.60;38.10;;;1.70;74.60;;;;;;5118300;27;20360;-74
2022/12/17 13:40:44;;;;;;;66.40;35.80;;;1.70;74.70;;;;;;5124846;27;20490;-75
2022/12/17 13:43:32;;;;;;;65.90;37.17;;;1.70;74.70;;;;;;5130612;27;20031;-75
2022/12/17 13:45:58;;;;;;;67.00;36.97;;;1.70;74.80;;;;;;5115833;27;20046;-73
2022/12/17 13:48:27;;;;;;;71.73;39.27;;;1.70;74.80;;;;;;5116011;27;20449;-73
2022/12/17 13:51:04;;;;;;;71.40;37.03;;;1.60;74.80;;;;;;5115763;27;20468;-73
2022/12/17 13:53:33;;;;;;;68.10;37.03;;;1.70;74.90;;;;;;5116076;27;20039;-76
2022/12/17 13:55:59;;;;;;;68.37;37.63;;;1.70;74.90;;;;;;5116048;27;20034;-75
2022/12/17 13:58:31;;;;;;;66.63;35.93;;;1.60;74.70;;;;;;5115530;27;20391;-74
2022/12/17 14:01:14;;;;;;;69.53;38.07;;;1.60;74.70;;;;;;5115373;27;20513;-72
2022/12/17 14:03:48;;;;;;;70.13;36.50;;;1.60;74.80;;;;;;5117629;27;20034;-75
2022/12/17 14:06:14;;;;;;;70.90;37.92;;;1.60;74.80;;;;;;5116902;27;20043;-75
2022/12/17 14:08:41;;;;;;;68.70;37.87;;;1.60;74.90;;;;;;5098722;27;20070;-76
2022/12/17 14:13:59;;;;;;;71.20;36.87;;;1.50;74.70;;;;;;5109172;27;20039;-71
2022/12/17 14:16:25;;;;;;;71.57;37.40;;;1.60;74.90;;;;;;5130244;27;20058;-71
2022/12/17 14:18:53;;;;;;;76.20;40.10;;;1.60;75.00;;;;;;5097875;27;20135;-71
2022/12/17 14:21:21;;;;;;;71.40;37.17;;;1.60;74.80;;;;;;5118003;27;20171;-71
2022/12/17 14:23:49;;;;;;;66.40;36.43;;;1.50;74.80;;;;;;5114965;27;20039;-75
2022/12/17 14:26:16;;;;;;;71.40;37.93;;;1.50;74.70;;;;;;5115298;27;20039;-74
2022/12/17 14:28:50;;;;;;;73.90;37.67;;;1.50;74.80;;;;;;5114973;28;20490;-73
2022/12/17 14:31:16;;;;;;;;;;;1.50;74.90;;;;;;5114471;28;20041;-72
2022/12/17 14:33:43;;;;;;;67.20;37.17;;;1.60;74.90;;;;;;5118829;28;19915;-73
2022/12/17 14:36:22;;;;;;;72.60;38.87;;;1.50;75.00;;;;;;5115921;28;20176;-73
2022/12/17 14:38:51;;;;;;;70.87;39.17;;;1.50;75.00;;;;;;5115223;28;20026;-73
2022/12/17 14:44:02;;;;;;;66.57;37.22;;;1.50;74.80;;;;;;5100578;28;20478;-75
2022/12/17 14:46:29;;;;;;;69.90;36.30;;;1.50;74.70;;;;;;5114914;28;20093;-74
2022/12/17 14:49:01;;;;;;;65.20;35.33;;;1.50;74.60;;;;;;5113365;28;20402;-73
2022/12/17 14:51:48;;;;;;;64.17;33.47;;;1.50;74.70;;;;;;5115283;28;20122;-73
2022/12/17 14:54:24;;;;;;;63.37;33.17;;;1.50;74.70;;;;;;5114897;28;20039;-73
2022/12/17 14:56:51;;;;;;;63.87;33.50;;;1.40;74.60;;;;;;5114993;28;20043;-73
2022/12/17 14:59:37;;;;;;;65.53;34.97;;;1.40;74.60;;;;;;5098154;28;20032;-73
2022/12/17 15:02:25;;;;;;;65.30;34.53;;;1.40;74.40;;;;;;5132424;28;20506;-74
2022/12/17 15:05:01;;;;;;;69.20;36.50;;;1.30;74.30;;;;;;5121008;28;20046;-76
2022/12/17 15:07:29;;;;;;;69.97;34.80;;;1.40;74.40;;;;;;5116168;28;20614;-76
2022/12/17 15:09:55;;;;;;;67.80;35.40;;;1.30;74.30;;;;;;5114816;28;20043;-77
2022/12/17 15:12:23;;;;;;;63.50;33.00;;;1.20;74.40;;;;;;5114894;28;20054;-77
2022/12/17 15:14:48;;;;;;;68.03;35.27;;;1.20;74.40;;;;;;5099478;28;20058;-77
2022/12/17 15:17:15;;;;;;;62.33;32.67;;;1.20;74.40;;;;;;5114707;27;20127;-77
2022/12/17 15:19:41;;;;;;;61.67;33.17;;;1.20;74.30;;;;;;5118766;27;20036;-77
2022/12/17 15:22:14;;;;;;;65.67;33.70;;;1.20;74.30;;;;;;5135981;27;20390;-77
2022/12/17 15:24:40;;;;;;;64.73;34.33;;;1.20;74.30;;;;;;5118725;27;20071;-77
2022/12/17 15:27:07;;;;;;;64.50;35.30;;;1.10;74.20;;;;;;5118534;27;20074;-76
2022/12/17 15:29:33;;;;;;;65.93;34.40;;;1.10;74.20;;;;;;5101110;27;20050;-77
2022/12/17 15:31:59;;;;;;;63.93;34.00;;;1.10;74.30;;;;;;5122713;27;20378;-76
2022/12/17 15:34:24;;;;;;;62.43;31.97;;;1.00;74.60;;;;;;5101449;27;20050;-76
2022/12/17 15:36:50;;;;;;;67.30;35.17;;;1.00;74.30;;;;;;5101478;27;20084;-77
2022/12/17 15:39:16;;;;;;;65.43;33.97;;;1.00;74.20;;;;;;5118306;27;20045;-76
2022/12/17 15:44:25;;;;;;;49.35;25.92;;;0.90;74.00;;;;;;5128149;27;20047;-72
2022/12/17 15:46:51;;;;;;;63.43;33.00;;;0.80;74.10;;;;;;5118353;27;20163;-73
2022/12/17 15:49:17;;;;;;;64.47;34.73;;;0.80;74.30;;;;;;5117956;27;20163;-73
2022/12/17 15:51:42;;;;;;;68.63;32.53;;;0.80;74.40;;;;;;5118486;27;20050;-73
2022/12/17 15:54:08;;;;;;;69.30;32.90;;;0.80;74.50;;;;;;5117648;27;20042;-73
2022/12/17 15:56:35;;;;;;;67.20;33.90;;;0.80;74.60;;;;;;5103730;27;20045;-74
2022/12/17 15:59:02;;;;;;;68.20;33.90;;;0.80;74.60;;;;;;5120301;27;20051;-74
2022/12/17 16:01:27;;;;;;;55.77;30.23;;;0.70;74.60;;;;;;5120178;27;20046;-74
2022/12/17 16:03:53;;;;;;;63.63;32.93;;;0.70;74.60;;;;;;5122300;27;20035;-74
2022/12/17 16:06:19;;;;;;;65.93;32.80;;;0.70;74.70;;;;;;5100706;27;20073;-75
2022/12/17 16:08:45;;;;;;;63.53;31.13;;;0.70;74.60;;;;;;5100754;27;20082;-75
2022/12/17 16:11:12;;;;;;;68.20;32.87;;;0.80;74.70;;;;;;5117620;27;20068;-74
2022/12/17 16:13:38;;;;;;;59.40;31.13;;;0.70;74.70;;;;;;5117553;27;20043;-74
2022/12/17 16:16:05;;;;;;;62.97;32.37;;;0.70;74.70;;;;;;5117159;27;20042;-74
2022/12/17 16:18:31;;;;;;;62.33;32.33;;;0.60;74.70;;;;;;5128805;27;20152;-75
2022/12/17 16:21:02;;;;;;;62.83;32.97;;;0.60;74.70;;;;;;5123414;27;20100;-75
2022/12/17 16:23:28;;;;;;;67.03;32.73;;;0.60;74.60;;;;;;5119045;27;20114;-76
2022/12/17 16:25:58;;;;;;;65.53;32.37;;;0.50;74.60;;;;;;5088715;27;20177;-75
2022/12/17 16:28:25;;;;;;;63.97;31.47;;;0.50;74.70;;;;;;5117153;27;20121;-74
2022/12/17 16:31:06;;;;;;;66.30;31.37;;;0.80;74.90;;;;;;5099593;27;20563;-74
2022/12/17 16:33:33;;;;;;;69.27;32.37;;;0.50;74.70;;;;;;5117014;27;20038;-74
2022/12/17 16:35:59;;;;;;;67.47;32.87;;;0.50;74.70;;;;;;5117121;27;20513;-73
2022/12/17 16:38:25;;;;;;;64.23;33.20;;;0.40;74.60;;;;;;5100492;27;20031;-74
2022/12/17 16:40:57;;;;;;;64.13;31.90;;;0.40;74.60;;;;;;5117029;27;20096;-74
2022/12/17 16:43:24;;;;;;;65.63;33.00;;;0.40;74.70;;;;;;5116318;27;20370;-74
2022/12/17 16:45:51;;;;;;;63.80;31.57;;;0.40;74.80;;;;;;5118251;27;20514;-75
2022/12/17 16:48:18;;;;;;;64.40;30.47;;;0.30;74.80;;;;;;5096789;28;20047;-77
2022/12/17 16:50:45;;;;;;;66.40;32.20;;;0.30;74.80;;;;;;5086854;27;20043;-76
2022/12/17 16:53:11;;;;;;;65.13;32.23;;;0.30;74.80;;;;;;5101497;27;20080;-75
2022/12/17 16:55:46;;;;;;;68.53;31.77;;;0.30;74.80;;;;;;5117059;27;20479;-74
2022/12/17 16:58:14;;;;;;;65.53;31.93;;;0.20;74.80;;;;;;5116506;27;20050;-74
2022/12/17 17:00:40;;;;;;;68.57;35.13;;;0.20;74.80;;;;;;5116582;27;20035;-75
2022/12/17 17:03:07;;;;;;;64.80;30.93;;;0.20;74.80;;;;;;5134222;27;20440;-75
2022/12/17 17:05:35;;;;;;;69.67;31.47;;;0.10;75.20;;;;;;5119293;27;20060;-73
2022/12/17 17:08:02;;;;;;;69.33;32.47;;;0.10;75.00;;;;;;5105549;27;20035;-73
2022/12/17 17:10:28;;;;;;;71.13;34.53;;;0.10;75.10;;;;;;5134080;27;20364;-75
2022/12/17 17:12:55;;;;;;;69.07;33.23;;;0.00;75.20;;;;;;5126627;27;20073;-74
2022/12/17 17:15:21;;;;;;;68.17;34.30;;;0.00;75.20;;;;;;5099472;27;20042;-74
2022/12/17 17:17:47;;;;;;;70.70;33.80;;;0.00;75.30;;;;;;5116451;27;20504;-74
2022/12/17 17:20:14;;;;;;;71.67;33.27;;;0.00;75.40;;;;;;5116506;27;20439;-74
2022/12/17 17:22:39;;;;;;;67.27;32.20;;;0.00;75.40;;;;;;5116553;27;20069;-75
2022/12/17 17:25:05;;;;;;;74.47;32.70;;;0.10;75.50;;;;;;5125974;27;20478;-74
2022/12/17 17:27:31;;;;;;;67.50;32.07;;;0.00;75.50;;;;;;5112492;28;20048;-74
2022/12/17 17:29:57;;;;;;;65.30;31.63;;;0.00;75.40;;;;;;5112663;28;20048;-74
2022/12/17 17:32:23;;;;;;;67.27;31.73;;;0.00;75.40;;;;;;5112880;28;20368;-73
2022/12/17 17:34:50;;;;;;;65.53;30.23;;;-0.10;75.40;;;;;;5096715;28;20038;-73
2022/12/17 17:37:16;;;;;;;68.77;32.37;;;0.00;75.50;;;;;;5114451;28;20040;-76
2022/12/17 17:39:41;;;;;;;69.53;33.20;;;-0.10;75.50;;;;;;5114111;28;20448;-76
2022/12/17 17:42:07;;;;;;;66.40;30.63;;;-0.10;75.60;;;;;;5110629;28;20415;-76
2022/12/17 17:44:33;;;;;;;64.70;31.77;;;-0.10;75.70;;;;;;5095356;28;20054;-77
2022/12/17 17:46:59;;;;;;;66.87;32.40;;;-0.10;75.80;;;;;;5110843;28;20035;-74
2022/12/17 17:49:25;;;;;;;62.70;30.87;;;-0.10;75.80;;;;;;5094816;28;20064;-73
2022/12/17 17:51:51;;;;;;;61.13;30.77;;;-0.10;75.80;;;;;;5111925;28;20096;-73
2022/12/17 17:54:16;;;;;;;67.77;31.77;;;-0.10;75.80;;;;;;5112207;28;20300;-74
2022/12/17 17:56:43;;;;;;;70.17;33.33;;;-0.10;75.80;;;;;;5112141;28;20039;-73
2022/12/17 17:59:14;;;;;;;65.80;31.00;;;-0.10;75.80;;;;;;5095424;28;20027;-73
2022/12/17 18:01:45;;;;;;;67.43;30.50;;;-0.10;75.80;;;;;;5111914;28;20036;-74
2022/12/17 18:04:14;;;;;;;67.70;32.23;;;-0.10;75.90;;;;;;5111161;28;20119;-74
2022/12/17 18:06:40;;;;;;;67.07;33.50;;;-0.10;75.90;;;;;;5110702;28;20046;-74
2022/12/17 18:09:07;;;;;;;74.50;36.13;;;-0.20;75.80;;;;;;5110970;28;20028;-74
2022/12/17 18:11:34;;;;;;;66.03;33.67;;;-0.10;75.80;;;;;;5095126;28;20375;-74
2022/12/17 18:14:00;;;;;;;66.03;31.57;;;-0.20;75.70;;;;;;5095398;28;20112;-74
2022/12/17 18:16:27;;;;;;;74.83;33.10;;;-0.20;75.80;;;;;;5111755;28;20055;-72
2022/12/17 18:19:01;;;;;;;65.63;30.43;;;-0.20;75.90;;;;;;5111774;28;20035;-74
2022/12/17 18:21:29;;;;;;;70.13;32.65;;;-0.20;76.00;;;;;;5093429;28;20122;-75
2022/12/17 18:24:06;;;;;;;62.97;30.17;;;-0.20;76.00;;;;;;5111566;28;20493;-75
2022/12/17 18:26:38;;;;;;;69.43;32.07;;;-0.20;76.00;;;;;;5111355;28;20047;-75
2022/12/17 18:29:14;;;;;;;71.67;31.93;;;-0.30;75.80;;;;;;5112029;28;20059;-75
2022/12/17 18:31:39;;;;;;;65.80;30.13;;;-0.30;76.00;;;;;;5111736;28;20177;-76
2022/12/17 18:34:06;;;;;;;66.43;31.60;;;-0.30;76.00;;;;;;5094969;28;20122;-75
2022/12/17 18:36:36;;;;;;;63.87;30.67;;;-0.30;76.00;;;;;;5094552;28;20036;-75
2022/12/17 18:39:14;;;;;;;70.20;31.13;;;-0.30;76.20;;;;;;5111577;28;20399;-73
2022/12/17 18:44:27;;;;;;;69.50;32.83;;;-0.30;76.20;;;;;;5112052;28;20044;-74
2022/12/17 18:46:53;;;;;;;65.77;31.23;;;-0.30;76.20;;;;;;5110888;28;20558;-74
2022/12/17 18:49:20;;;;;;;66.70;31.53;;;-0.30;76.20;;;;;;5111504;28;20044;-74
2022/12/17 18:51:48;;;;;;;66.87;31.57;;;-0.40;76.10;;;;;;5111897;28;20096;-75
2022/12/17 18:54:22;;;;;;;69.43;34.40;;;-0.30;76.20;;;;;;5114598;28;20046;-74
2022/12/17 18:56:48;;;;;;;;;;;-0.30;76.30;;;;;;5116115;28;20047;-74
2022/12/17 18:59:17;;;;;;;70.00;32.40;;;-0.40;76.20;;;;;;5115643;28;19915;-75
2022/12/17 19:01:44;;;;;;;67.90;31.23;;;-0.30;76.40;;;;;;5115482;28;20051;-75
2022/12/17 19:04:13;;;;;;;66.90;31.47;;;-0.30;76.50;;;;;;5114180;28;20391;-75
2022/12/17 19:06:40;;;;;;;67.27;33.80;;;-0.30;76.60;;;;;;5097709;28;20490;-75
2022/12/17 19:09:07;;;;;;;65.47;34.03;;;-0.30;76.50;;;;;;5115083;28;20035;-74
2022/12/17 19:11:34;;;;;;;61.37;31.37;;;-0.30;76.30;;;;;;5115013;28;20036;-73
2022/12/17 19:14:00;;;;;;;64.07;31.83;;;-0.30;76.10;;;;;;5098476;28;20042;-74
2022/12/17 19:16:27;;;;;;;67.43;34.30;;;-0.30;76.10;;;;;;5115199;28;20071;-73
2022/12/17 19:18:55;;;;;;;63.13;31.53;;;-0.40;76.00;;;;;;5098141;28;20032;-73
2022/12/17 19:21:23;;;;;;;62.37;31.90;;;-0.40;76.30;;;;;;5115291;28;20126;-74
2022/12/17 19:23:54;;;;;;;64.73;31.63;;;-0.40;76.20;;;;;;5098396;28;20424;-74
2022/12/17 19:26:20;;;;;;;62.03;31.13;;;-0.40;76.20;;;;;;5115268;28;20051;-74
2022/12/17 19:28:49;;;;;;;63.40;32.00;;;-0.40;76.20;;;;;;5098220;28;20044;-73
2022/12/17 19:31:16;;;;;;;66.20;33.33;;;-0.40;76.30;;;;;;5115690;28;20048;-74
2022/12/17 19:33:42;;;;;;;63.63;32.57;;;-0.40;76.30;;;;;;5114230;28;20051;-74
2022/12/17 19:36:19;;;;;;;69.00;34.53;;;-0.50;76.30;;;;;;5114792;28;20051;-74
2022/12/17 19:38:46;;;;;;;64.97;32.17;;;-0.40;76.40;;;;;;5114301;28;20031;-74
2022/12/17 19:41:14;;;;;;;65.97;35.97;;;-0.40;76.40;;;;;;5114433;28;20085;-74
2022/12/17 19:43:45;;;;;;;66.17;33.87;;;-0.40;76.30;;;;;;5114580;28;20505;-75
2022/12/17 19:46:12;;;;;;;60.87;32.33;;;-0.40;76.20;;;;;;5114289;28;20039;-75
2022/12/17 19:48:39;;;;;;;64.20;33.00;;;-0.40;76.60;;;;;;5097750;28;20055;-74
2022/12/17 19:51:05;;;;;;;64.10;33.00;;;-0.40;76.20;;;;;;5113664;28;20053;-74
2022/12/17 19:53:32;;;;;;;65.60;33.73;;;-0.50;76.10;;;;;;5077051;28;20086;-72
2022/12/17 19:56:12;;;;;;;63.70;32.57;;;-0.40;76.10;;;;;;5097513;28;20048;-71
2022/12/17 19:58:39;;;;;;;65.87;31.93;;;-0.50;75.90;;;;;;5112276;27;20043;-72
2022/12/17 20:01:10;;;;;;;61.20;31.93;;;-0.40;76.00;;;;;;5101906;28;20058;-72
2022/12/17 20:03:37;;;;;;;64.53;33.57;;;-0.50;75.90;;;;;;5096742;28;20085;-72
2022/12/17 20:06:03;;;;;;;67.17;33.50;;;-0.50;76.00;;;;;;5113010;28;20032;-71
2022/12/17 20:08:30;;;;;;;65.10;32.20;;;-0.50;75.80;;;;;;5114082;28;20043;-72
2022/12/17 20:10:56;;;;;;;65.20;33.37;;;-0.50;75.80;;;;;;5114208;28;20126;-71
2022/12/17 20:13:22;;;;;;;68.37;34.27;;;-0.50;76.00;;;;;;5114328;28;20114;-72
2022/12/17 20:15:48;;;;;;;65.70;33.20;;;-0.60;75.80;;;;;;5114315;28;20043;-72
2022/12/17 20:18:13;;;;;;;64.00;33.90;;;-0.60;75.80;;;;;;5114110;28;20132;-72
2022/12/17 20:20:39;;;;;;;59.67;31.37;;;-0.60;75.80;;;;;;5113935;28;20086;-72
2022/12/17 20:23:05;;;;;;;65.13;32.23;;;-0.60;76.30;;;;;;5114245;28;20039;-71
2022/12/17 20:25:30;;;;;;;66.13;34.10;;;-0.60;76.00;;;;;;5115583;27;20036;-72
2022/12/17 20:27:56;;;;;;;64.03;32.53;;;-0.60;76.00;;;;;;5102847;27;20044;-72
2022/12/17 20:30:24;;;;;;;67.60;33.80;;;-0.60;76.00;;;;;;5126583;27;20049;-72
2022/12/17 20:32:53;;;;;;;64.60;34.63;;;-0.60;76.10;;;;;;5117114;27;20047;-73
2022/12/17 20:35:20;;;;;;;66.93;34.17;;;-0.50;76.20;;;;;;5109870;27;20386;-73
2022/12/17 20:37:45;;;;;;;64.07;32.33;;;-0.60;76.00;;;;;;5099935;27;20039;-72
2022/12/17 20:40:11;;;;;;;72.37;35.03;;;-0.60;76.00;;;;;;5119204;27;20444;-72
2022/12/17 20:42:37;;;;;;;60.30;34.67;;;-0.50;76.00;;;;;;5105743;27;20035;-71
2022/12/17 20:45:03;;;;;;;67.20;35.30;;;-0.60;75.90;;;;;;5099875;27;20039;-72
2022/12/17 20:47:29;;;;;;;64.20;32.43;;;-0.60;75.80;;;;;;5117396;27;20512;-72
2022/12/17 20:49:54;;;;;;;62.10;32.87;;;-0.60;75.90;;;;;;5122325;27;20039;-72
2022/12/17 20:52:20;;;;;;;63.43;32.50;;;-0.60;75.90;;;;;;5116897;27;20202;-72
2022/12/17 20:54:46;;;;;;;61.70;31.20;;;-0.60;75.90;;;;;;5116078;27;20088;-72
2022/12/17 20:57:12;;;;;;;65.73;33.03;;;-0.60;75.80;;;;;;5123636;27;20039;-72
2022/12/17 20:59:37;;;;;;;66.37;33.67;;;-0.70;75.70;;;;;;5104824;27;20450;-71
2022/12/17 21:02:03;;;;;;;62.93;33.97;;;-0.60;75.80;;;;;;5117050;27;20109;-71
2022/12/17 21:04:28;;;;;;;68.03;34.23;;;-0.70;75.70;;;;;;5121730;27;20031;-71
2022/12/17 21:06:54;;;;;;;67.60;35.43;;;-0.60;75.80;;;;;;5107377;27;20485;-71
2022/12/17 21:09:21;;;;;;;69.20;35.47;;;-0.70;75.90;;;;;;5104732;27;20126;-71
2022/12/17 21:11:47;;;;;;;66.97;33.60;;;-0.70;76.00;;;;;;5110075;27;20103;-71
2022/12/17 21:14:16;;;;;;;62.13;32.53;;;-0.70;76.00;;;;;;5111029;27;20038;-72
2022/12/17 21:16:42;;;;;;;65.00;32.40;;;-0.70;76.10;;;;;;5124087;27;20052;-71
2022/12/17 21:19:12;;;;;;;65.20;33.33;;;-0.70;76.20;;;;;;5093257;27;20430;-71
2022/12/17 21:21:38;;;;;;;65.20;34.23;;;-0.70;76.30;;;;;;5124236;27;20042;-71
2022/12/17 21:24:06;;;;;;;67.17;34.50;;;-0.70;76.30;;;;;;5120399;27;20081;-70
2022/12/17 21:26:34;;;;;;;63.37;32.83;;;-0.70;76.30;;;;;;5120397;27;20142;-70
2022/12/17 21:29:01;;;;;;;65.43;32.30;;;-0.30;76.60;;;;;;5121457;27;21350;-70
2022/12/17 21:31:30;;;;;;;69.43;35.63;;;-0.70;76.20;;;;;;5114169;27;20035;-70
2022/12/17 21:33:59;;;;;;;70.87;36.63;;;-0.70;76.30;;;;;;5122465;27;20035;-70
2022/12/17 21:36:26;;;;;;;67.10;33.80;;;-0.70;76.40;;;;;;5120318;27;20053;-70
2022/12/17 21:38:53;;;;;;;69.27;36.30;;;-0.70;76.40;;;;;;5123780;27;20066;-70
2022/12/17 21:41:21;;;;;;;72.40;36.87;;;-0.60;76.50;;;;;;5122039;27;20042;-70
2022/12/17 21:43:50;;;;;;;70.60;35.10;;;-0.60;76.50;;;;;;5123771;27;20031;-70
2022/12/17 21:46:16;;;;;;;70.90;33.97;;;-0.60;76.40;;;;;;5104809;27;20080;-70
2022/12/17 21:48:42;;;;;;;66.73;34.47;;;-0.60;76.30;;;;;;5118013;27;20436;-71
2022/12/17 21:51:10;;;;;;;68.17;33.97;;;-0.70;76.10;;;;;;5097156;27;20055;-70
2022/12/17 21:53:40;;;;;;;66.60;32.80;;;-0.60;76.00;;;;;;5119892;27;20075;-70
2022/12/17 21:56:09;;;;;;;70.27;35.73;;;-0.70;76.00;;;;;;5121318;27;20035;-73
2022/12/17 21:58:35;;;;;;;68.40;35.17;;;-0.70;76.20;;;;;;5124154;27;20087;-70
2022/12/17 22:01:20;;;;;;;71.77;35.97;;;-0.70;76.30;;;;;;5118280;27;20039;-70
2022/12/17 22:03:47;;;;;;;68.70;33.30;;;-0.70;76.40;;;;;;5135251;27;20039;-69
2022/12/17 22:06:15;;;;;;;70.30;34.37;;;-0.70;76.20;;;;;;5122337;27;21414;-70
2022/12/17 22:08:42;;;;;;;70.80;34.17;;;-0.70;76.30;;;;;;5114411;27;20114;-69
2022/12/17 22:11:16;;;;;;;72.73;34.30;;;-0.70;76.30;;;;;;5104680;27;20038;-69
2022/12/17 22:14:01;;;;;;;70.15;34.15;;;-0.70;76.30;;;;;;5117938;27;20051;-69
2022/12/17 22:16:37;;;;;;;71.93;34.73;;;-0.70;76.30;;;;;;5121457;27;20035;-69
2022/12/17 22:19:04;;;;;;;67.23;35.23;;;-0.80;76.40;;;;;;5120436;27;20051;-70
2022/12/17 22:21:38;;;;;;;67.70;32.67;;;-0.70;76.50;;;;;;5104733;27;20458;-70
2022/12/17 22:24:05;;;;;;;;;;;-0.70;76.60;;;;;;5119642;27;20076;-70
2022/12/17 22:26:32;;;;;;;72.67;33.50;;;-0.70;76.60;;;;;;5120493;27;20374;-70
2022/12/17 22:28:59;;;;;;;74.33;35.57;;;-0.70;76.70;;;;;;5119547;27;20046;-70
2022/12/17 22:34:11;;;;;;;74.63;34.60;;;-0.70;76.60;;;;;;5119436;27;20491;-69
2022/12/17 22:36:38;;;;;;;77.50;37.33;;;-0.70;76.60;;;;;;5118199;27;20717;-69
2022/12/17 22:39:08;;;;;;;73.00;35.07;;;-0.70;76.50;;;;;;5118656;27;20043;-69
2022/12/17 22:44:18;;;;;;;58.13;25.95;;;-0.70;76.60;;;;;;5136805;27;20504;-70
2022/12/17 22:46:43;;;;;;;79.67;36.77;;;-0.70;76.50;;;;;;5100826;27;20049;-71
2022/12/17 22:49:09;;;;;;;76.43;34.43;;;-0.70;76.50;;;;;;5120130;27;20046;-71
2022/12/17 22:51:35;;;;;;;77.37;34.37;;;-0.70;76.40;;;;;;5120537;27;20129;-76
2022/12/17 22:54:03;;;;;;;72.53;33.63;;;-0.70;76.40;;;;;;5098558;27;20129;-70
2022/12/17 22:56:29;;;;;;;74.70;33.87;;;-0.70;76.40;;;;;;5120532;27;20042;-70
2022/12/17 22:58:55;;;;;;;74.47;33.67;;;-0.80;76.70;;;;;;5121284;27;20099;-70
2022/12/17 23:01:21;;;;;;;73.83;33.97;;;-0.80;76.30;;;;;;5120276;27;20031;-71
2022/12/17 23:03:47;;;;;;;76.83;32.37;;;-0.90;76.20;;;;;;5118404;27;20054;-76
2022/12/17 23:06:15;;;;;;;72.70;33.80;;;-0.80;76.30;;;;;;5119579;27;20129;-75
2022/12/17 23:08:42;;;;;;;69.87;33.50;;;-0.90;76.30;;;;;;5117894;27;20026;-75
2022/12/17 23:11:13;;;;;;;70.83;32.20;;;-0.90;76.40;;;;;;5122821;27;20047;-76
2022/12/17 23:13:39;;;;;;;81.57;34.87;;;-1.00;76.40;;;;;;5103106;27;20061;-75
2022/12/17 23:16:06;;;;;;;75.57;34.53;;;-1.00;76.50;;;;;;5100411;27;20050;-75
2022/12/17 23:18:32;;;;;;;73.60;34.03;;;-1.00;76.50;;;;;;5120618;27;20039;-75
2022/12/17 23:21:13;;;;;;;75.90;34.37;;;-1.00;76.60;;;;;;5121461;27;20049;-75
2022/12/17 23:23:39;;;;;;;70.57;33.13;;;-1.00;76.70;;;;;;5110677;28;20027;-75
2022/12/17 23:26:12;;;;;;;69.17;33.50;;;-1.00;77.20;;;;;;5131971;28;20104;-75
2022/12/17 23:28:38;;;;;;;74.97;34.67;;;-0.90;76.90;;;;;;5131797;28;20043;-76
2022/12/17 23:31:12;;;;;;;78.63;34.10;;;-0.90;76.90;;;;;;5104796;28;20046;-75
2022/12/17 23:33:38;;;;;;;75.00;32.88;;;-0.90;76.80;;;;;;5107018;28;20066;-77
2022/12/17 23:36:07;;;;;;;77.70;34.27;;;-0.90;76.80;;;;;;5114674;28;20043;-70
2022/12/17 23:38:33;;;;;;;66.53;31.73;;;-0.90;76.80;;;;;;5115224;27;20401;-70
2022/12/17 23:41:20;;;;;;;70.13;32.67;;;-0.90;76.80;;;;;;5102825;27;20031;-70
2022/12/17 23:43:46;;;;;;;68.37;31.60;;;-0.90;76.90;;;;;;5108136;27;20117;-70
2022/12/17 23:46:12;;;;;;;61.40;29.20;;;-0.90;77.00;;;;;;5130219;27;20114;-71
2022/12/17 23:48:41;;;;;;;76.73;34.93;;;-0.80;77.10;;;;;;5118311;27;20466;-70
2022/12/17 23:51:08;;;;;;;72.10;33.23;;;-0.80;77.20;;;;;;5118394;27;20043;-70
2022/12/17 23:53:35;;;;;;;62.83;30.73;;;-0.80;77.00;;;;;;5101321;27;20490;-70
2022/12/17 23:56:22;;;;;;;67.97;32.33;;;-0.80;76.90;;;;;;5118138;27;20043;-75
2022/12/17 23:58:52;;;;;;;71.10;31.67;;;-0.70;76.90;;;;;;5101326;27;20047;-75
